ADDS METAR Data INFO
IDs: Format: Raw Decoded Include TAF

Data at: 0857 UTC 22 Feb 2018

KBUR 220853Z 06003KT 10SM CLR 06/M03 A3016 RMK AO2 SLP208 T00611028 53005
KBUR 220753Z 00000KT 10SM CLR 08/M04 A3015 RMK AO2 SLP205 T00781039 401500056
KBUR 220653Z 34003KT 10SM CLR 08/M03 A3014 RMK AO2 SLP202 T00831028
KBUR 220553Z 32004KT 10SM CLR 09/00 A3015 RMK AO2 SLP203 T00890000 10144 20089 51009
KBUR 220453Z 00000KT 10SM CLR 10/M01 A3014 RMK AO2 SLP202 T01001006
KBUR 220353Z 30003KT 10SM CLR 11/M02 A3013 RMK AO2 SLP198 T01061022
KBUR 212353Z 19008KT 10SM FEW090 14/M04 A3007 RMK AO2 SLP178 T01441039 10150 20111 55006
KBUR 212253Z 19009KT 10SM CLR 14/M04 A3007 RMK AO2 SLP176 T01441039
KBUR 212153Z 28007KT 10SM CLR 14/M10 A3007 RMK AO2 SLP177 T01441100
KBUR 212053Z 26009KT 10SM CLR 14/M09 A3009 RMK AO2 SLP184 T01441094 58014
KBUR 211953Z VRB05KT 10SM CLR 13/M09 A3011 RMK AO2 SLP191 T01331089
KBUR 211853Z 00000KT 10SM CLR 12/M07 A3012 RMK AO2 SLP195 T01221072
KBUR 211753Z 00000KT 10SM CLR 12/M06 A3013 RMK AO2 SLP199 T01171061 10117 20056 51006
KBUR 211653Z 24003KT 10SM CLR 11/M07 A3013 RMK AO2 SLP198 T01061067
KBUR 211553Z 00000KT 10SM CLR 07/M04 A3012 RMK AO2 SLP196 T00721044
KBUR 211453Z 00000KT 10SM CLR 06/M02 A3012 RMK AO2 SLP193 T00561022 53012
KBUR 211353Z 33005KT 10SM OVC085 07/M06 A3010 RMK AO2 SLP186 T00671056
KBUR 211253Z 00000KT 10SM OVC090 07/M06 A3009 RMK AO2 SLP183 T00721056
KBUR 210753Z 33003KT 10SM CLR 07/M07 A3011 RMK AO2 SLP190 T00721067 401500022
KBUR 210653Z 31004KT 10SM CLR 08/M07 A3011 RMK AO2 SLP192 T00781067
KBUR 210553Z 33006KT 10SM CLR 08/M06 A3013 RMK AO2 SLP199 T00781056 10144 20078 51005